createdAt,value
2019-04-29T00:01:15.301Z,97661.66
2019-04-29T00:03:42.060Z,97732.57
2019-04-29T00:06:08.871Z,97736.50
2019-04-29T00:08:35.671Z,97733.88
2019-04-29T00:11:02.455Z,97727.05
2019-04-29T00:13:29.290Z,97735.19
2019-04-29T00:15:57.748Z,97739.13
2019-04-29T00:18:26.248Z,97737.53
2019-04-29T00:20:53.022Z,97736.78
2019-04-29T00:23:19.815Z,97737.30
2019-04-29T00:25:46.623Z,97737.81
2019-04-29T00:28:13.403Z,97733.88
2019-04-29T00:30:40.262Z,97738.33
2019-04-29T00:33:07.069Z,97737.81
2019-04-29T00:35:33.864Z,97734.67
2019-04-29T00:38:11.475Z,97734.39
2019-04-29T00:40:45.878Z,97733.09
2019-04-29T00:43:29.800Z,97737.02
2019-04-29T00:45:56.970Z,97735.47
2019-04-29T00:48:23.840Z,97737.81
2019-04-29T00:50:50.649Z,97735.19
2019-04-29T00:53:17.500Z,97732.05
2019-04-29T00:55:44.286Z,97735.70
2019-04-29T00:58:11.146Z,97745.16
2019-04-29T01:00:39.584Z,97735.98
2019-04-29T01:03:06.455Z,97741.23
2019-04-29T01:05:33.279Z,97733.09
2019-04-29T01:08:00.096Z,97738.84
2019-04-29T01:10:27.350Z,97735.98
2019-04-29T01:12:54.186Z,97737.30
2019-04-29T01:15:21.118Z,97732.05
2019-04-29T01:17:47.978Z,97741.23
2019-04-29T01:20:14.778Z,97737.81
2019-04-29T01:22:41.578Z,97734.39
2019-04-29T01:25:08.389Z,97733.37
2019-04-29T01:27:36.834Z,97731.27
2019-04-29T01:30:03.700Z,97737.30
2019-04-29T01:32:30.503Z,97744.36
2019-04-29T01:34:57.310Z,97738.61
2019-04-29T01:37:25.752Z,97737.30
2019-04-29T01:39:54.196Z,97736.50
2019-04-29T01:42:28.703Z,97737.30
2019-04-29T01:44:55.529Z,97735.47
2019-04-29T01:47:22.352Z,97739.41
2019-04-29T01:49:49.163Z,97736.50
2019-04-29T01:52:16.031Z,97739.41
2019-04-29T01:54:42.830Z,97644.17
2019-04-29T01:57:09.673Z,97744.64
2019-04-29T01:59:36.452Z,97743.34
2019-04-29T02:02:03.554Z,97737.02
2019-04-29T02:04:30.341Z,97734.67
2019-04-29T02:06:57.158Z,97739.13
2019-04-29T02:09:25.584Z,97734.67
2019-04-29T02:11:52.369Z,97741.23
2019-04-29T02:14:19.213Z,97737.81
2019-04-29T02:16:46.038Z,97735.98
2019-04-29T02:19:12.907Z,97737.81
2019-04-29T02:21:41.416Z,97734.67
2019-04-29T02:24:12.838Z,97736.78
2019-04-29T02:26:39.699Z,97736.78
2019-04-29T02:29:06.498Z,97739.41
2019-04-29T02:31:40.857Z,97733.37
2019-04-29T02:34:08.051Z,97730.75
2019-04-29T02:36:34.896Z,97732.05
2019-04-29T02:39:15.573Z,97734.16
2019-04-29T02:41:52.942Z,97724.20
2019-04-29T02:44:19.797Z,97721.06
2019-04-29T02:46:46.583Z,97724.43
2019-04-29T02:49:13.374Z,97727.56
2019-04-29T02:51:44.577Z,97721.53
2019-04-29T02:54:11.619Z,97726.25
2019-04-29T02:56:39.258Z,97725.97
2019-04-29T02:59:07.678Z,97725.97
2019-04-29T03:01:39.012Z,97723.87
2019-04-29T03:04:10.274Z,97721.53
2019-04-29T03:06:37.051Z,97720.22
2019-04-29T03:09:03.947Z,97717.83
2019-04-29T03:11:30.763Z,97718.11
2019-04-29T03:13:57.538Z,97720.73
2019-04-29T03:16:24.324Z,97717.31
2019-04-29T03:18:58.509Z,97721.24
2019-04-29T03:21:32.576Z,97720.45
2019-04-29T03:23:59.343Z,97721.24
2019-04-29T03:26:26.106Z,97718.16
2019-04-29T03:28:52.892Z,97715.25
2019-04-29T03:31:19.661Z,97718.62
2019-04-29T03:33:46.429Z,97715.72
2019-04-29T03:36:13.202Z,97713.10
2019-04-29T03:38:39.965Z,97714.69
2019-04-29T03:41:06.736Z,97716.52
2019-04-29T03:43:33.525Z,97717.03
2019-04-29T03:46:00.334Z,97718.86
2019-04-29T03:48:27.288Z,97708.38
2019-04-29T03:50:54.096Z,97710.20
2019-04-29T03:53:20.971Z,97712.82
2019-04-29T03:55:47.846Z,97713.62
2019-04-29T03:58:14.618Z,97720.69
2019-04-29T04:00:44.231Z,97715.95
2019-04-29T04:03:12.134Z,97716.95
2019-04-29T04:05:49.427Z,97719.09
2019-04-29T04:08:17.857Z,97715.64
2019-04-29T04:10:44.629Z,97718.27
2019-04-29T04:13:11.546Z,97723.51
2019-04-29T04:15:38.468Z,97722.71
2019-04-29T04:18:06.902Z,97723.51
2019-04-29T04:20:33.679Z,97727.95
2019-04-29T04:23:00.497Z,97729.27
2019-04-29T04:25:27.279Z,97728.47
2019-04-29T04:27:54.220Z,97727.16
2019-04-29T04:30:20.989Z,97727.16
2019-04-29T04:32:48.025Z,97731.09
2019-04-29T04:35:14.825Z,97729.50
2019-04-29T04:37:41.614Z,97732.12
2019-04-29T04:40:10.027Z,97734.23
2019-04-29T04:42:36.793Z,97733.42
2019-04-29T04:45:03.562Z,97740.78
2019-04-29T04:47:30.364Z,97750.47
2019-04-29T04:49:57.140Z,97749.16
2019-04-29T04:52:23.931Z,97747.84
2019-04-29T04:54:52.354Z,97747.84
2019-04-29T04:57:19.135Z,97749.16
2019-04-29T04:59:45.913Z,97752.57
2019-04-29T05:02:12.714Z,97743.91
2019-04-29T05:04:39.487Z,97747.05
2019-04-29T05:07:06.278Z,97752.28
2019-04-29T05:09:33.044Z,97747.05
2019-04-29T05:11:59.822Z,97750.98
2019-04-29T05:14:26.619Z,97644.97
2019-04-29T05:16:53.376Z,97756.73
2019-04-29T05:19:20.188Z,97757.81
2019-04-29T05:21:46.955Z,97761.45
2019-04-29T05:24:13.730Z,97762.48
2019-04-29T05:26:40.496Z,97765.91
2019-04-29T05:29:07.315Z,97767.22
2019-04-29T05:31:34.094Z,97765.11
2019-04-29T05:34:00.872Z,97766.42
2019-04-29T05:36:29.282Z,97763.80
2019-04-29T05:38:57.698Z,97765.11
2019-04-29T05:41:25.040Z,97767.73
2019-04-29T05:44:05.704Z,97766.42
2019-04-29T05:46:36.936Z,97766.94
2019-04-29T05:49:07.331Z,97763.52
2019-04-29T05:51:43.028Z,97760.38
2019-04-29T05:54:17.458Z,97759.59
2019-04-29T05:56:44.486Z,97767.96
2019-04-29T05:59:12.823Z,97764.03
2019-04-29T06:01:42.842Z,97770.07
2019-04-29T06:04:11.573Z,97767.96
2019-04-29T06:06:36.799Z,97770.58
2019-04-29T06:09:05.146Z,97774.00
2019-04-29T06:11:31.931Z,97775.83
2019-04-29T06:13:58.722Z,97773.20
2019-04-29T06:16:25.499Z,97774.00
2019-04-29T06:18:59.412Z,97772.69
2019-04-29T06:21:20.797Z,97774.52
2019-04-29T06:23:47.569Z,97783.17
2019-04-29T06:26:14.406Z,97775.83
2019-04-29T06:28:41.219Z,97777.13
2019-04-29T06:31:07.999Z,97775.03
2019-04-29T06:33:34.779Z,97783.69
2019-04-29T06:36:01.557Z,97781.06
2019-04-29T06:38:28.330Z,97776.85
2019-04-29T06:40:55.096Z,97777.65
2019-04-29T06:43:24.624Z,97792.06
2019-04-29T06:45:50.420Z,97785.05
2019-04-29T06:48:17.217Z,97791.59
2019-04-29T06:50:44.049Z,97789.48
2019-04-29T06:53:10.848Z,97781.63
2019-04-29T06:55:37.637Z,97786.36
2019-04-29T06:58:04.465Z,97780.31
2019-04-29T07:00:31.289Z,97781.12
2019-04-29T07:02:58.105Z,97778.50
2019-04-29T07:05:24.902Z,97783.73
2019-04-29T07:07:52.035Z,97787.95
2019-04-29T07:10:21.770Z,97783.22
2019-04-29T07:12:48.329Z,97786.12
2019-04-29T07:15:15.429Z,97788.74
2019-04-29T07:17:43.087Z,97788.46
2019-04-29T07:20:10.125Z,97795.81
2019-04-29T07:22:36.922Z,97789.26
2019-04-29T07:25:03.744Z,97791.88
2019-04-29T07:27:30.556Z,97791.08
2019-04-29T07:29:57.391Z,97794.50
2019-04-29T07:32:24.181Z,97792.39
2019-04-29T07:34:51.025Z,97797.41
2019-04-29T07:37:17.838Z,97793.19
2019-04-29T07:39:44.640Z,97792.67
2019-04-29T07:42:11.540Z,97794.50
2019-04-29T07:44:44.168Z,97795.81
2019-04-29T07:47:11.387Z,97795.30
2019-04-29T07:49:38.154Z,97791.88
2019-04-29T07:52:05.067Z,97791.88
2019-04-29T07:54:31.988Z,97793.98
2019-04-29T07:56:58.800Z,97795.02
2019-04-29T07:59:25.638Z,97792.67
2019-04-29T08:01:55.707Z,97793.19
2019-04-29T08:04:20.920Z,97792.67
2019-04-29T08:06:47.734Z,97795.30
2019-04-29T08:09:14.549Z,97795.30
2019-04-29T08:11:41.354Z,97790.57
2019-04-29T08:14:08.274Z,97795.30
2019-04-29T08:16:35.115Z,97797.41
2019-04-29T08:19:04.744Z,97805.27
2019-04-29T08:21:30.466Z,97794.50
2019-04-29T08:23:57.272Z,97797.13
2019-04-29T08:26:24.238Z,97796.61
2019-04-29T08:28:52.861Z,97791.64
2019-04-29T08:31:20.970Z,97794.78
2019-04-29T08:33:48.578Z,97790.57
2019-04-29T08:36:15.531Z,97796.09
2019-04-29T08:38:42.413Z,97796.09
2019-04-29T08:41:09.239Z,97793.47
2019-04-29T08:43:40.788Z,97797.41
2019-04-29T08:46:21.424Z,97796.09
2019-04-29T08:48:48.220Z,97790.57
2019-04-29T08:51:15.039Z,97793.98
2019-04-29T08:53:41.910Z,97795.30
2019-04-29T08:56:10.263Z,97796.61
2019-04-29T08:58:39.349Z,97795.30
2019-04-29T09:01:06.885Z,97794.78
2019-04-29T09:03:40.619Z,97796.61
2019-04-29T09:06:05.645Z,97795.58
2019-04-29T09:08:32.920Z,97787.44
2019-04-29T09:11:00.572Z,97788.74
2019-04-29T09:13:27.466Z,97782.47
2019-04-29T09:15:54.399Z,97792.95
2019-04-29T09:18:21.205Z,97793.78
2019-04-29T09:20:48.045Z,97795.09
2019-04-29T09:23:16.483Z,97789.03
2019-04-29T09:26:01.572Z,97785.09
2019-04-29T09:28:22.581Z,97780.55
2019-04-29T09:30:46.518Z,97785.23
2019-04-29T09:33:14.341Z,97781.53
2019-04-29T09:35:41.231Z,97778.42
2019-04-29T09:38:08.018Z,97775.52
2019-04-29T09:40:36.430Z,97779.39
2019-04-29T09:43:15.604Z,97773.78
2019-04-29T09:45:40.991Z,97769.30
2019-04-29T09:48:07.756Z,97774.52
2019-04-29T09:50:39.022Z,97771.84
2019-04-29T09:53:03.042Z,97770.49
2019-04-29T09:55:29.843Z,97776.03
2019-04-29T09:57:56.679Z,97766.95
2019-04-29T10:00:36.369Z,97760.00
2019-04-29T10:03:03.979Z,97755.34
2019-04-29T10:05:32.390Z,97755.21
2019-04-29T10:07:59.212Z,97751.64
2019-04-29T10:10:26.230Z,97747.50
2019-04-29T10:12:54.133Z,97753.23
2019-04-29T10:15:22.606Z,97752.65
2019-04-29T10:17:55.665Z,97746.06
2019-04-29T10:20:24.135Z,97748.16
2019-04-29T10:22:53.795Z,97747.44
2019-04-29T10:25:19.422Z,97755.13
2019-04-29T10:27:46.217Z,97742.78
2019-04-29T10:30:13.452Z,97744.19
2019-04-29T10:32:42.511Z,97746.27
2019-04-29T10:35:10.650Z,97740.30
2019-04-29T10:37:37.661Z,97744.14
2019-04-29T10:40:11.501Z,97737.40
2019-04-29T10:42:36.230Z,97731.52
2019-04-29T10:45:04.699Z,97735.30
2019-04-29T10:47:49.549Z,97736.39
2019-04-29T10:50:18.006Z,97731.84
2019-04-29T10:52:44.790Z,97730.36
2019-04-29T10:55:11.632Z,97728.25
2019-04-29T10:57:38.422Z,97732.05
2019-04-29T11:00:16.857Z,97735.00
2019-04-29T11:02:44.705Z,97729.20
2019-04-29T11:05:17.378Z,97724.27
2019-04-29T11:07:45.717Z,97728.25
2019-04-29T11:10:25.369Z,97717.70
2019-04-29T11:12:52.015Z,97717.81
2019-04-29T11:15:20.425Z,97719.45
2019-04-29T11:17:47.224Z,97714.63
2019-04-29T11:20:15.863Z,97708.39
2019-04-29T11:22:46.986Z,97717.16
2019-04-29T11:25:15.418Z,97710.66
2019-04-29T11:27:49.931Z,97724.27
2019-04-29T11:30:18.388Z,97711.17
2019-04-29T11:33:04.806Z,97716.45
2019-04-29T11:35:49.907Z,97713.66
2019-04-29T11:38:18.258Z,97712.73
2019-04-29T11:40:45.044Z,97705.23
2019-04-29T11:43:15.437Z,97712.33
2019-04-29T11:45:41.422Z,97704.03
2019-04-29T11:48:08.198Z,97698.06
2019-04-29T11:50:36.624Z,97710.72
2019-04-29T11:53:03.415Z,97706.84
2019-04-29T11:55:30.262Z,97695.87
2019-04-29T11:58:01.423Z,97693.25
2019-04-29T12:00:46.259Z,97702.23
2019-04-29T12:03:19.011Z,97698.87
2019-04-29T12:05:47.807Z,97700.47
2019-04-29T12:08:17.041Z,97699.48
2019-04-29T12:10:46.891Z,97698.45
2019-04-29T12:13:13.317Z,97696.12
2019-04-29T12:15:49.248Z,97698.51
2019-04-29T12:18:17.907Z,97696.23
2019-04-29T12:20:49.246Z,97701.75
2019-04-29T12:23:17.308Z,97702.55
2019-04-29T12:25:44.131Z,97692.64
2019-04-29T12:28:18.993Z,97697.88
2019-04-29T12:30:47.388Z,97702.55
2019-04-29T12:33:15.891Z,97700.95
2019-04-29T12:35:51.593Z,97692.30
2019-04-29T12:38:39.758Z,97691.00
2019-04-29T12:41:02.966Z,97688.38
2019-04-29T12:43:37.138Z,97678.70
2019-04-29T12:46:23.861Z,97680.30
2019-04-29T12:48:50.669Z,97683.20
2019-04-29T12:51:17.484Z,97673.23
2019-04-29T12:53:44.902Z,97678.25
2019-04-29T12:56:12.787Z,97679.33
2019-04-29T12:58:39.665Z,97675.48
2019-04-29T13:01:11.090Z,97684.13
2019-04-29T13:03:40.968Z,97684.08
2019-04-29T13:06:24.026Z,97686.38
2019-04-29T13:08:51.904Z,97684.56
2019-04-29T13:11:20.776Z,97683.77
2019-04-29T13:13:51.266Z,97683.25
2019-04-29T13:16:21.986Z,97677.22
2019-04-29T13:18:53.919Z,97682.45
2019-04-29T13:21:19.165Z,97676.23
2019-04-29T13:23:55.568Z,97672.30
2019-04-29T13:26:27.290Z,97675.48
2019-04-29T13:28:58.873Z,97668.94
2019-04-29T13:31:11.700Z,97662.91
2019-04-29T13:33:38.519Z,97655.85
2019-04-29T13:36:05.643Z,97650.61
2019-04-29T13:38:32.544Z,97651.92
2019-04-29T13:41:12.831Z,97647.48
2019-04-29T13:43:27.975Z,97652.72
2019-04-29T13:45:56.507Z,97652.72
2019-04-29T13:48:27.947Z,97654.83
2019-04-29T13:50:56.416Z,97646.17
2019-04-29T13:53:23.235Z,97650.39
2019-04-29T13:55:50.365Z,97640.42
2019-04-29T13:58:22.379Z,97639.41
2019-04-29T14:01:20.492Z,97630.75
2019-04-29T14:03:36.380Z,97633.66
2019-04-29T14:06:04.654Z,97634.96
2019-04-29T14:08:31.574Z,97629.22
2019-04-29T14:10:58.390Z,97622.39
2019-04-29T14:13:25.171Z,97624.27
2019-04-29T14:15:51.949Z,97622.16
2019-04-29T14:18:19.000Z,97623.75
2019-04-29T14:20:47.286Z,97622.20
2019-04-29T14:23:14.289Z,97619.30
2019-04-29T14:25:41.056Z,97612.25
2019-04-29T14:28:07.834Z,97613.05
2019-04-29T14:30:39.059Z,97614.63
2019-04-29T14:33:03.847Z,97617.25
2019-04-29T14:35:32.304Z,97618.05
2019-04-29T14:38:04.311Z,97610.20
2019-04-29T14:40:27.658Z,97614.91
2019-04-29T14:42:58.037Z,97610.98
2019-04-29T14:45:32.273Z,97609.68
2019-04-29T14:48:09.824Z,97609.17
2019-04-29T14:50:36.595Z,97615.71
2019-04-29T14:53:03.382Z,97616.51
2019-04-29T14:55:30.158Z,97619.12
2019-04-29T14:57:57.016Z,97611.78
2019-04-29T15:00:25.495Z,97613.38
2019-04-29T15:02:55.888Z,97616.78
2019-04-29T15:05:20.982Z,97615.48
2019-04-29T15:07:48.006Z,97616.78
2019-04-29T15:10:14.897Z,97619.92
2019-04-29T15:13:01.607Z,97615.48
2019-04-29T15:15:25.534Z,97607.63
2019-04-29T15:18:15.606Z,97619.72
2019-04-29T15:20:41.862Z,97612.34
2019-04-29T15:23:08.651Z,97614.97
2019-04-29T15:25:35.472Z,97618.89
2019-04-29T15:28:02.261Z,97627.06
2019-04-29T15:30:31.666Z,97627.57
2019-04-29T15:32:59.426Z,97620.20
2019-04-29T15:35:26.309Z,97627.06
2019-04-29T15:37:53.103Z,97636.50
2019-04-29T15:40:20.534Z,97628.88
2019-04-29T15:42:50.050Z,97634.12
2019-04-29T15:45:16.891Z,97633.60
2019-04-29T15:47:45.655Z,97620.20
2019-04-29T15:50:18.754Z,97628.57
2019-04-29T15:52:40.684Z,97632.30
2019-04-29T15:55:07.524Z,97625.23
2019-04-29T15:57:34.438Z,97639.91
2019-04-29T16:00:12.538Z,97630.98
2019-04-29T16:02:29.923Z,97633.09
2019-04-29T16:05:14.436Z,97637.02
2019-04-29T16:07:40.558Z,97635.70
2019-04-29T16:10:25.536Z,97636.22
2019-04-29T16:12:53.950Z,97642.25
2019-04-29T16:15:20.760Z,97643.33
2019-04-29T16:17:47.607Z,97641.73
2019-04-29T16:20:14.491Z,97644.88
2019-04-29T16:22:41.279Z,97637.53
2019-04-29T16:27:41.031Z,97635.20
2019-04-29T16:30:05.266Z,97642.02
2019-04-29T16:32:33.688Z,97636.50
2019-04-29T16:35:00.479Z,97633.88
2019-04-29T16:37:31.774Z,97632.06
2019-04-29T16:39:59.794Z,97629.45
2019-04-29T16:42:26.012Z,97625.52
2019-04-29T16:44:52.800Z,97629.95
2019-04-29T16:47:20.470Z,97624.20
2019-04-29T16:49:47.260Z,97633.38
2019-04-29T16:52:14.054Z,97622.11
2019-04-29T16:54:40.835Z,97628.14
2019-04-29T16:57:07.629Z,97630.23
2019-04-29T16:59:34.396Z,97624.49
2019-04-29T17:02:01.235Z,97629.36
2019-04-29T17:04:28.001Z,97622.72
2019-04-29T17:07:11.888Z,97626.70
2019-04-29T17:09:24.935Z,97628.29
2019-04-29T17:11:56.183Z,97623.33
2019-04-29T17:14:20.486Z,97620.72
2019-04-29T17:16:47.261Z,97622.62
2019-04-29T17:19:14.041Z,97625.23
2019-04-29T17:21:40.832Z,97620.00
2019-04-29T17:24:26.806Z,97620.80
2019-04-29T17:27:13.910Z,97627.62
2019-04-29T17:29:49.389Z,97625.52
2019-04-29T17:32:16.253Z,97631.27
2019-04-29T17:34:59.013Z,97621.31
2019-04-29T17:35:14.119Z,97637.81
2019-04-29T17:37:13.626Z,97620.52
2019-04-29T17:39:40.388Z,97619.48
2019-04-29T17:42:07.169Z,97618.17
2019-04-29T17:44:44.607Z,97624.20
2019-04-29T17:47:13.329Z,97619.48
2019-04-29T17:49:47.932Z,97626.55
2019-04-29T17:52:22.470Z,97620.28
2019-04-29T17:54:50.951Z,97626.03
2019-04-29T17:57:31.686Z,97622.62
2019-04-29T18:00:05.088Z,97631.78
2019-04-29T18:02:33.038Z,97628.88
2019-04-29T18:05:05.626Z,97627.85
2019-04-29T18:07:51.899Z,97626.55
2019-04-29T18:10:29.302Z,97627.06
2019-04-29T18:12:54.973Z,97626.55
2019-04-29T18:15:25.658Z,97624.44
2019-04-29T18:17:52.610Z,97623.13
2019-04-29T18:20:32.976Z,97628.37
2019-04-29T18:23:00.033Z,97628.93
2019-04-29T18:25:31.420Z,97638.09
2019-04-29T18:28:00.226Z,97635.24
2019-04-29T18:30:35.960Z,97640.89
2019-04-29T18:32:56.604Z,97638.55
2019-04-29T18:35:23.514Z,97639.78
2019-04-29T18:37:50.345Z,97643.43
2019-04-29T18:40:17.837Z,97646.05
2019-04-29T18:42:46.867Z,97643.43
2019-04-29T18:45:15.688Z,97640.53
2019-04-29T18:47:42.651Z,97638.70
2019-04-29T18:50:09.667Z,97636.88
2019-04-29T18:52:36.534Z,97635.58
2019-04-29T18:55:03.463Z,97633.23
2019-04-29T18:57:31.022Z,97636.09
2019-04-29T18:59:58.030Z,97634.55
2019-04-29T19:02:27.103Z,97642.91
2019-04-29T19:05:04.322Z,97636.38
2019-04-29T19:07:31.755Z,97631.64
2019-04-29T19:09:59.819Z,97635.86
2019-04-29T19:12:26.657Z,97636.65
2019-04-29T19:14:53.443Z,97634.03
2019-04-29T19:17:21.813Z,97639.27
2019-04-29T19:19:48.972Z,97633.75
2019-04-29T19:22:15.896Z,97629.83
2019-04-29T19:24:44.317Z,97626.97
2019-04-29T19:27:11.482Z,97634.83
2019-04-29T19:29:38.787Z,97632.72
2019-04-29T19:32:07.251Z,97627.48
2019-04-29T19:34:42.255Z,97628.80
2019-04-29T19:37:05.055Z,97626.17
2019-04-29T19:39:31.973Z,97631.73
2019-04-29T19:41:58.923Z,97633.23
2019-04-29T19:44:32.649Z,97629.91
2019-04-29T19:46:56.934Z,97634.83
2019-04-29T19:49:23.131Z,97633.52
2019-04-29T19:51:50.085Z,97626.48
2019-04-29T19:54:23.794Z,97626.97
2019-04-29T19:56:45.900Z,97632.72
2019-04-29T19:59:14.702Z,97636.45
2019-04-29T20:01:41.777Z,97632.21
2019-04-29T20:04:17.865Z,97632.21
2019-04-29T20:06:44.809Z,97628.59
2019-04-29T20:09:17.568Z,97626.77
2019-04-29T20:11:40.013Z,97627.28
2019-04-29T20:14:17.569Z,97620.94
2019-04-29T20:16:44.697Z,97628.59
2019-04-29T20:19:19.767Z,97613.39
2019-04-29T20:21:42.472Z,97616.30
2019-04-29T20:24:15.655Z,97609.47
2019-04-29T20:26:38.064Z,97616.30
2019-04-29T20:29:07.125Z,97608.64
2019-04-29T20:31:37.112Z,97609.47
2019-04-29T20:34:02.423Z,97612.88
2019-04-29T20:36:40.852Z,97613.39
2019-04-29T20:38:58.150Z,97608.64
2019-04-29T20:41:40.263Z,97601.62
2019-04-29T20:43:56.036Z,97600.79
2019-04-29T20:46:22.528Z,97597.38
2019-04-29T20:48:50.446Z,97595.06
2019-04-29T20:51:18.505Z,97598.17
2019-04-29T20:53:47.266Z,97598.48
2019-04-29T20:56:23.667Z,97593.25
2019-04-29T20:58:44.398Z,97596.86
2019-04-29T21:01:13.804Z,97598.48
2019-04-29T21:03:48.454Z,97597.17
2019-04-29T21:06:10.362Z,97595.06
2019-04-29T21:08:37.263Z,97572.75
2019-04-29T21:11:05.954Z,97594.55
2019-04-29T21:13:56.019Z,97598.17
2019-04-29T21:16:29.174Z,97602.92
2019-04-29T21:18:56.686Z,97597.97
2019-04-29T21:21:23.059Z,97595.06
2019-04-29T21:23:49.912Z,97591.94
2019-04-29T21:26:16.787Z,97595.35
2019-04-29T21:28:46.536Z,97598.48
2019-04-29T21:31:16.597Z,97591.94
2019-04-29T21:33:41.167Z,97600.30
2019-04-29T21:36:15.532Z,97591.63
2019-04-29T21:39:01.572Z,97590.63
2019-04-29T21:41:32.224Z,97588.01
2019-04-29T21:43:59.827Z,97592.73
2019-04-29T21:46:29.573Z,97583.56
2019-04-29T21:48:55.679Z,97590.63
2019-04-29T21:51:22.607Z,97591.42
2019-04-29T21:53:49.550Z,97593.25
2019-04-29T21:56:16.353Z,97590.63
2019-04-29T21:58:43.398Z,97587.22
2019-04-29T22:01:10.615Z,97589.32
2019-04-29T22:03:37.542Z,97585.39
2019-04-29T22:06:04.538Z,97577.53
2019-04-29T22:08:31.429Z,97572.81
2019-04-29T22:11:05.072Z,97575.91
2019-04-29T22:13:30.646Z,97574.92
2019-04-29T22:15:55.398Z,97580.67
2019-04-29T22:18:22.695Z,97578.84
2019-04-29T22:20:49.532Z,97581.98
2019-04-29T22:23:17.346Z,97577.53
2019-04-29T22:25:45.668Z,97582.77
2019-04-29T22:28:15.861Z,97580.16
2019-04-29T22:30:41.658Z,97577.53
2019-04-29T22:33:08.888Z,97581.46
2019-04-29T22:35:37.198Z,97578.33
2019-04-29T22:38:07.663Z,97578.05
2019-04-29T22:40:34.139Z,97576.23
2019-04-29T22:43:14.285Z,97571.78
2019-04-29T22:45:40.664Z,97572.30
2019-04-29T22:48:14.918Z,97574.92
2019-04-29T22:50:38.097Z,97570.98
2019-04-29T22:53:06.767Z,97567.06
2019-04-29T22:55:37.068Z,97570.98
2019-04-29T22:58:07.922Z,97567.86
2019-04-29T23:00:32.828Z,97559.20
2019-04-29T23:03:02.265Z,97557.90
2019-04-29T23:05:29.146Z,97558.41
2019-04-29T23:07:59.659Z,97554.77
2019-04-29T23:10:27.891Z,97559.20
2019-04-29T23:12:57.422Z,97561.03
2019-04-29T23:15:24.192Z,97556.59
2019-04-29T23:17:51.872Z,97558.90
2019-04-29T23:20:29.637Z,97563.13
2019-04-29T23:23:05.265Z,97562.34
2019-04-29T23:25:35.434Z,97554.97
2019-04-29T23:28:02.372Z,97553.66
2019-04-29T23:30:29.343Z,97549.25
2019-04-29T23:32:56.374Z,97546.63
2019-04-29T23:35:25.023Z,97540.88
2019-04-29T23:37:51.993Z,97543.19
2019-04-29T23:40:18.921Z,97536.64
2019-04-29T23:42:47.857Z,97529.61
2019-04-29T23:45:20.782Z,97524.06
2019-04-29T23:47:46.967Z,97526.68
2019-04-29T23:50:14.032Z,97529.89
2019-04-29T23:52:42.917Z,97532.23
2019-04-29T23:55:08.564Z,97527.48
2019-04-29T23:58:02.436Z,97521.45
